createdAt,value
2023-03-27T00:02:11.782Z,101675.38
2023-03-27T00:08:01.776Z,101712.00
2023-03-27T00:13:54.457Z,101708.72
2023-03-27T00:19:41.556Z,101687.34
2023-03-27T00:25:29.194Z,101700.81
2023-03-27T00:31:17.118Z,101721.69
2023-03-27T00:37:05.616Z,101715.91
2023-03-27T00:42:57.696Z,101722.41
2023-03-27T00:48:49.624Z,101738.38
2023-03-27T00:54:41.677Z,101760.09
2023-03-27T01:00:28.732Z,101758.97
2023-03-27T01:06:17.250Z,101762.72
2023-03-27T01:12:31.978Z,101772.44
2023-03-27T01:18:48.498Z,101780.84
2023-03-27T01:24:56.629Z,101788.84
2023-03-27T01:30:51.458Z,101786.66
2023-03-27T01:36:55.742Z,101777.97
2023-03-27T01:42:49.205Z,101779.00
2023-03-27T01:48:48.614Z,101779.56
2023-03-27T01:54:39.937Z,101786.06
2023-03-27T02:00:51.921Z,101781.56
2023-03-27T02:06:41.935Z,101788.56
2023-03-27T02:12:39.141Z,101794.66
2023-03-27T02:18:34.613Z,101833.03
2023-03-27T02:24:22.461Z,101839.13
2023-03-27T02:30:31.367Z,101840.75
2023-03-27T02:36:22.009Z,101863.16
2023-03-27T02:42:21.290Z,101861.75
2023-03-27T02:48:19.157Z,101880.41
2023-03-27T02:54:17.185Z,101873.16
2023-03-27T03:00:27.980Z,101883.34
2023-03-27T03:06:31.849Z,101889.69
2023-03-27T03:12:23.251Z,101896.47
2023-03-27T03:18:10.183Z,101919.09
2023-03-27T03:23:57.537Z,101921.75
2023-03-27T03:29:48.581Z,101929.06
2023-03-27T03:35:39.046Z,101933.72
2023-03-27T03:41:32.671Z,101934.72
2023-03-27T03:47:21.341Z,101941.38
2023-03-27T03:53:09.238Z,101950.31
2023-03-27T03:58:58.643Z,101948.81
2023-03-27T04:04:46.665Z,101963.19
2023-03-27T04:10:36.269Z,101964.41
2023-03-27T04:16:26.825Z,101982.25
2023-03-27T04:22:17.295Z,101990.94
2023-03-27T04:28:04.473Z,102000.03
2023-03-27T04:34:03.167Z,102001.06
2023-03-27T04:40:10.558Z,101986.31
2023-03-27T04:45:57.644Z,102001.66
2023-03-27T04:51:46.342Z,102002.03
2023-03-27T04:57:34.433Z,102001.28
2023-03-27T05:03:24.015Z,102013.38
2023-03-27T05:09:25.931Z,101997.59
2023-03-27T05:15:16.269Z,102016.97
2023-03-27T05:21:05.340Z,102014.13
2023-03-27T05:26:55.605Z,102023.88
2023-03-27T05:32:48.794Z,102029.28
2023-03-27T05:38:44.462Z,102044.44
2023-03-27T05:44:34.341Z,102040.06
2023-03-27T05:50:25.385Z,102051.75
2023-03-27T05:56:14.135Z,102053.31
2023-03-27T06:02:20.993Z,102064.03
2023-03-27T06:08:17.154Z,102087.47
2023-03-27T06:14:06.006Z,102101.81
2023-03-27T06:20:25.043Z,102105.47
2023-03-27T06:26:16.132Z,102139.38
2023-03-27T06:32:04.272Z,102116.50
2023-03-27T06:37:59.221Z,102118.06
2023-03-27T06:43:46.432Z,102109.38
2023-03-27T06:49:47.848Z,102104.09
2023-03-27T06:55:41.112Z,102114.06
2023-03-27T07:01:28.279Z,102122.91
2023-03-27T07:07:44.241Z,102121.31
2023-03-27T07:13:31.760Z,102117.84
2023-03-27T07:19:22.273Z,102116.38
2023-03-27T07:25:18.021Z,102129.06
2023-03-27T07:31:29.382Z,102127.97
2023-03-27T07:37:27.591Z,102152.75
2023-03-27T07:43:49.756Z,102150.00
2023-03-27T07:49:40.503Z,102140.91
2023-03-27T07:55:37.031Z,102150.19
2023-03-27T08:01:29.815Z,102167.84
2023-03-27T08:07:22.726Z,102158.75
2023-03-27T08:13:12.766Z,102168.34
2023-03-27T08:19:02.426Z,102173.94
2023-03-27T08:24:51.214Z,102177.19
2023-03-27T08:37:45.987Z,102174.69
2023-03-27T08:43:57.579Z,102175.97
2023-03-27T08:49:49.388Z,102192.78
2023-03-27T08:55:50.580Z,102194.88
2023-03-27T09:02:15.804Z,102196.56
2023-03-27T09:08:39.024Z,102200.34
2023-03-27T09:15:11.779Z,102216.97
2023-03-27T09:22:11.289Z,102221.03
2023-03-27T09:37:59.789Z,102227.75
2023-03-27T09:48:49.930Z,102217.28
2023-03-27T10:01:39.267Z,102220.97
2023-03-27T10:07:35.932Z,102211.84
2023-03-27T10:14:14.990Z,102218.75
2023-03-27T10:20:20.329Z,102220.81
2023-03-27T10:26:17.703Z,102214.78
2023-03-27T10:32:09.532Z,102211.47
2023-03-27T10:38:23.672Z,102196.28
2023-03-27T10:44:31.133Z,102200.94
2023-03-27T10:50:32.669Z,102194.44
2023-03-27T10:56:43.653Z,102215.13
2023-03-27T11:02:48.375Z,102207.22
2023-03-27T11:09:16.259Z,102198.56
2023-03-27T11:15:22.364Z,102200.69
2023-03-27T11:21:17.615Z,102196.34
2023-03-27T11:27:42.185Z,102195.06
2023-03-27T11:33:52.407Z,102187.09
2023-03-27T11:39:53.251Z,102200.50
2023-03-27T11:46:00.158Z,102197.38
2023-03-27T11:52:23.707Z,102191.34
2023-03-27T11:58:34.953Z,102172.81
2023-03-27T12:04:48.880Z,102199.84
2023-03-27T12:10:49.407Z,102202.78
2023-03-27T12:16:56.388Z,102197.41
2023-03-27T12:22:58.522Z,102197.63
2023-03-27T12:29:28.199Z,102195.63
2023-03-27T12:35:24.040Z,102210.16
2023-03-27T12:41:33.184Z,102220.00
2023-03-27T12:47:34.587Z,102212.63
2023-03-27T12:53:29.721Z,102209.00
2023-03-27T12:59:29.339Z,102213.28
2023-03-27T13:05:34.296Z,102202.44
2023-03-27T13:12:04.713Z,102203.38
2023-03-27T13:18:28.311Z,102192.03
2023-03-27T13:24:48.248Z,102189.94
2023-03-27T13:30:56.417Z,102173.00
2023-03-27T13:37:07.909Z,102189.41
2023-03-27T13:43:21.891Z,102181.53
2023-03-27T13:49:41.885Z,102175.09
2023-03-27T13:56:06.893Z,102189.38
2023-03-27T14:02:26.235Z,102185.09
2023-03-27T14:08:23.428Z,102200.25
2023-03-27T14:14:38.141Z,102176.84
2023-03-27T14:20:33.208Z,102182.91
2023-03-27T14:26:24.700Z,102182.41
2023-03-27T14:32:18.109Z,102171.13
2023-03-27T14:38:22.194Z,102177.09
2023-03-27T14:44:18.562Z,102174.88
2023-03-27T14:50:08.486Z,102174.22
2023-03-27T14:56:06.173Z,102173.16
2023-03-27T15:02:47.632Z,102166.72
2023-03-27T15:08:39.815Z,102176.50
2023-03-27T15:14:40.200Z,102177.69
2023-03-27T15:20:33.289Z,102177.81
2023-03-27T15:26:25.823Z,102166.25
2023-03-27T15:32:26.765Z,102170.91
2023-03-27T15:38:21.672Z,102157.69
2023-03-27T15:44:24.472Z,102166.94
2023-03-27T15:50:30.973Z,102175.38
2023-03-27T15:56:45.899Z,102155.59
2023-03-27T16:02:39.319Z,102158.63
2023-03-27T16:08:35.731Z,102161.91
2023-03-27T16:20:49.523Z,102158.66
2023-03-27T16:26:36.710Z,102156.97
2023-03-27T16:32:26.549Z,102157.31
2023-03-27T16:38:16.568Z,102139.75
2023-03-27T16:44:11.906Z,102138.19
2023-03-27T16:50:10.874Z,102141.09
2023-03-27T16:56:00.827Z,102140.88
2023-03-27T17:01:48.648Z,102123.22
2023-03-27T17:07:36.111Z,102131.13
2023-03-27T17:13:25.391Z,102127.44
2023-03-27T17:19:15.434Z,102125.19
2023-03-27T17:25:19.490Z,102119.28
2023-03-27T17:31:19.990Z,102121.53
2023-03-27T17:37:20.016Z,102120.31
2023-03-27T17:43:09.049Z,102133.25
2023-03-27T17:49:00.711Z,102131.88
2023-03-27T17:54:52.005Z,102144.69
2023-03-27T18:00:46.345Z,102140.66
2023-03-27T18:06:34.672Z,102132.69
2023-03-27T18:12:21.777Z,102136.06
2023-03-27T18:18:09.160Z,102138.34
2023-03-27T18:23:59.734Z,102147.09
2023-03-27T18:30:01.941Z,102145.13
2023-03-27T18:35:55.149Z,102164.03
2023-03-27T18:41:44.987Z,102181.63
2023-03-27T18:47:32.169Z,102178.38
2023-03-27T18:53:22.222Z,102192.19
2023-03-27T18:59:14.562Z,102205.31
2023-03-27T19:05:02.429Z,102212.13
2023-03-27T19:10:58.403Z,102224.34
2023-03-27T19:17:05.942Z,102210.28
2023-03-27T19:23:14.267Z,102214.59
2023-03-27T19:29:06.168Z,102208.97
2023-03-27T19:34:53.223Z,102202.81
2023-03-27T19:40:40.275Z,102206.47
2023-03-27T19:46:31.078Z,102214.59
2023-03-27T19:52:19.923Z,102205.88
2023-03-27T19:58:06.831Z,102222.34
2023-03-27T20:03:57.342Z,102220.25
2023-03-27T20:09:45.847Z,102219.72
2023-03-27T20:15:32.717Z,102222.69
2023-03-27T20:21:20.028Z,102234.19
2023-03-27T20:27:10.017Z,102237.63
2023-03-27T20:32:58.237Z,102239.19
2023-03-27T20:38:48.065Z,102243.22
2023-03-27T20:44:35.408Z,102230.97
2023-03-27T20:50:23.896Z,102231.53
2023-03-27T20:56:12.715Z,102233.53
2023-03-27T21:02:03.732Z,102227.78
2023-03-27T21:22:53.177Z,102219.63
2023-03-27T21:28:47.382Z,102222.09
2023-03-27T21:35:42.209Z,102210.97
2023-03-27T21:43:11.473Z,102209.84
2023-03-27T21:49:53.663Z,102221.25
2023-03-27T22:09:23.713Z,102206.72
2023-03-27T22:23:07.458Z,102199.13
2023-03-27T22:29:17.634Z,102201.59
2023-03-27T22:35:05.011Z,102200.19
2023-03-27T22:40:51.949Z,102194.34
2023-03-27T22:46:39.481Z,102189.50
2023-03-27T22:52:28.619Z,102193.94
2023-03-27T22:58:18.404Z,102187.06
2023-03-27T23:04:05.866Z,102193.56
2023-03-27T23:09:54.135Z,102173.31
2023-03-27T23:15:46.637Z,102169.22
2023-03-27T23:21:36.636Z,102168.22
2023-03-27T23:33:25.605Z,102154.66
2023-03-27T23:39:15.801Z,102149.47
2023-03-27T23:45:02.689Z,102152.50
2023-03-27T23:50:50.178Z,102156.31
2023-03-27T23:56:37.210Z,102142.16
